Cayley, Canada
Current Conditions -  °F | °C
As of 6:00 PM on Thursday 18 Dec 2014 (Local Time) from CYYC Reporting Station
Scattered Clouds Scattered Clouds  
Wind Chill: 27°   Ceiling: Unl
Heat Index: 32°   Visibility: 15mi
Dew Point: 23°   Wind: 5mph
Humidity: 69%   Direction: 190°S
Pressure: 29.77"   Gusts: NA
Location:  50.45°N, 113.85°W
Report Text: CYYC 190100Z 19004KT 15SM FEW120 SCT280 00/M05 A2977 RMK AC2CI2 SLP135
Loading
Personal Weather Stations






























Interactive Weather Map New forecast layout! Learn more

10-Day Weather Forecast

Advertisements
Track Severe Weather on mobile